sensor_id;sensor_type;location;lat;lon;timestamp;P1;durP1;ratioP1;P2;durP2;ratioP2
53781;SDS011;39692;53.114;7.060;2023-03-31T00:01:37;8.93;;;2.65;;
53781;SDS011;39692;53.114;7.060;2023-03-31T00:04:09;13.35;;;2.22;;
53781;SDS011;39692;53.114;7.060;2023-03-31T00:06:37;13.32;;;2.60;;
53781;SDS011;39692;53.114;7.060;2023-03-31T00:09:06;17.52;;;3.10;;
53781;SDS011;39692;53.114;7.060;2023-03-31T00:11:33;13.77;;;2.55;;
53781;SDS011;39692;53.114;7.060;2023-03-31T00:13:59;11.80;;;2.72;;
53781;SDS011;39692;53.114;7.060;2023-03-31T00:16:25;11.35;;;2.97;;
53781;SDS011;39692;53.114;7.060;2023-03-31T00:18:51;17.05;;;3.60;;
53781;SDS011;39692;53.114;7.060;2023-03-31T00:21:20;9.55;;;2.45;;
53781;SDS011;39692;53.114;7.060;2023-03-31T00:23:53;8.02;;;2.20;;
53781;SDS011;39692;53.114;7.060;2023-03-31T00:26:19;10.98;;;2.60;;
53781;SDS011;39692;53.114;7.060;2023-03-31T00:28:47;16.63;;;2.88;;
53781;SDS011;39692;53.114;7.060;2023-03-31T00:31:13;18.08;;;3.00;;
53781;SDS011;39692;53.114;7.060;2023-03-31T00:33:40;13.93;;;2.88;;
53781;SDS011;39692;53.114;7.060;2023-03-31T00:36:06;14.43;;;3.78;;
53781;SDS011;39692;53.114;7.060;2023-03-31T00:38:33;13.43;;;3.28;;
53781;SDS011;39692;53.114;7.060;2023-03-31T00:41:00;14.50;;;3.78;;
53781;SDS011;39692;53.114;7.060;2023-03-31T00:43:28;10.05;;;2.45;;
53781;SDS011;39692;53.114;7.060;2023-03-31T00:45:57;11.95;;;4.00;;
53781;SDS011;39692;53.114;7.060;2023-03-31T00:48:25;12.00;;;2.72;;
53781;SDS011;39692;53.114;7.060;2023-03-31T00:50:55;14.77;;;2.72;;
53781;SDS011;39692;53.114;7.060;2023-03-31T00:53:23;9.68;;;2.38;;
53781;SDS011;39692;53.114;7.060;2023-03-31T00:55:52;11.82;;;3.22;;
53781;SDS011;39692;53.114;7.060;2023-03-31T00:58:19;9.82;;;2.13;;
53781;SDS011;39692;53.114;7.060;2023-03-31T01:00:47;14.20;;;2.85;;
53781;SDS011;39692;53.114;7.060;2023-03-31T01:03:14;7.78;;;2.30;;
53781;SDS011;39692;53.114;7.060;2023-03-31T01:05:50;8.90;;;2.40;;
53781;SDS011;39692;53.114;7.060;2023-03-31T01:08:19;8.00;;;2.67;;
53781;SDS011;39692;53.114;7.060;2023-03-31T01:10:49;12.48;;;2.05;;
53781;SDS011;39692;53.114;7.060;2023-03-31T01:13:16;14.63;;;3.15;;
53781;SDS011;39692;53.114;7.060;2023-03-31T01:15:43;8.25;;;2.10;;
53781;SDS011;39692;53.114;7.060;2023-03-31T01:18:10;13.95;;;2.50;;
53781;SDS011;39692;53.114;7.060;2023-03-31T01:23:27;16.85;;;2.53;;
53781;SDS011;39692;53.114;7.060;2023-03-31T01:43:35;7.90;;;1.67;;
53781;SDS011;39692;53.114;7.060;2023-03-31T01:46:09;10.35;;;1.90;;
53781;SDS011;39692;53.114;7.060;2023-03-31T01:51:08;10.60;;;2.25;;
53781;SDS011;39692;53.114;7.060;2023-03-31T01:56:37;11.60;;;1.98;;
53781;SDS011;39692;53.114;7.060;2023-03-31T01:59:07;13.27;;;1.92;;
53781;SDS011;39692;53.114;7.060;2023-03-31T02:01:38;9.43;;;2.15;;
53781;SDS011;39692;53.114;7.060;2023-03-31T02:04:08;9.68;;;2.40;;
53781;SDS011;39692;53.114;7.060;2023-03-31T02:06:39;8.30;;;1.88;;
53781;SDS011;39692;53.114;7.060;2023-03-31T02:09:08;6.40;;;1.88;;
53781;SDS011;39692;53.114;7.060;2023-03-31T02:11:35;10.48;;;2.30;;
53781;SDS011;39692;53.114;7.060;2023-03-31T02:14:03;13.45;;;1.98;;
53781;SDS011;39692;53.114;7.060;2023-03-31T02:16:32;6.75;;;1.77;;
53781;SDS011;39692;53.114;7.060;2023-03-31T02:19:00;5.80;;;1.33;;
53781;SDS011;39692;53.114;7.060;2023-03-31T02:21:32;16.45;;;2.25;;
53781;SDS011;39692;53.114;7.060;2023-03-31T02:23:59;7.95;;;2.67;;
53781;SDS011;39692;53.114;7.060;2023-03-31T02:26:28;10.95;;;2.95;;
53781;SDS011;39692;53.114;7.060;2023-03-31T02:28:55;10.20;;;2.45;;
53781;SDS011;39692;53.114;7.060;2023-03-31T02:31:24;8.75;;;2.05;;
53781;SDS011;39692;53.114;7.060;2023-03-31T02:33:52;13.70;;;2.60;;
53781;SDS011;39692;53.114;7.060;2023-03-31T02:36:18;7.53;;;2.33;;
53781;SDS011;39692;53.114;7.060;2023-03-31T02:38:46;17.50;;;2.55;;
53781;SDS011;39692;53.114;7.060;2023-03-31T02:41:15;7.55;;;3.35;;
53781;SDS011;39692;53.114;7.060;2023-03-31T02:43:41;13.38;;;2.70;;
53781;SDS011;39692;53.114;7.060;2023-03-31T02:46:07;8.90;;;3.13;;
53781;SDS011;39692;53.114;7.060;2023-03-31T02:48:37;6.63;;;2.13;;
53781;SDS011;39692;53.114;7.060;2023-03-31T02:53:42;6.53;;;2.55;;
53781;SDS011;39692;53.114;7.060;2023-03-31T03:01:47;13.25;;;3.72;;
53781;SDS011;39692;53.114;7.060;2023-03-31T03:09:42;9.05;;;2.88;;
53781;SDS011;39692;53.114;7.060;2023-03-31T03:17:27;12.88;;;3.22;;
53781;SDS011;39692;53.114;7.060;2023-03-31T03:19:55;12.60;;;3.35;;
53781;SDS011;39692;53.114;7.060;2023-03-31T03:22:23;12.77;;;3.40;;
53781;SDS011;39692;53.114;7.060;2023-03-31T03:24:50;7.43;;;2.58;;
53781;SDS011;39692;53.114;7.060;2023-03-31T03:27:17;7.30;;;2.53;;
53781;SDS011;39692;53.114;7.060;2023-03-31T03:29:46;10.45;;;2.30;;
53781;SDS011;39692;53.114;7.060;2023-03-31T03:32:12;6.97;;;2.60;;
53781;SDS011;39692;53.114;7.060;2023-03-31T03:34:39;7.22;;;2.72;;
53781;SDS011;39692;53.114;7.060;2023-03-31T03:37:05;6.45;;;2.60;;
53781;SDS011;39692;53.114;7.060;2023-03-31T03:39:31;13.65;;;3.08;;
53781;SDS011;39692;53.114;7.060;2023-03-31T03:41:57;9.75;;;3.20;;
53781;SDS011;39692;53.114;7.060;2023-03-31T03:44:23;6.05;;;2.35;;
53781;SDS011;39692;53.114;7.060;2023-03-31T03:46:49;9.40;;;2.40;;
53781;SDS011;39692;53.114;7.060;2023-03-31T03:49:15;7.40;;;3.20;;
53781;SDS011;39692;53.114;7.060;2023-03-31T03:51:41;8.50;;;3.42;;
53781;SDS011;39692;53.114;7.060;2023-03-31T03:54:07;11.50;;;2.75;;
53781;SDS011;39692;53.114;7.060;2023-03-31T03:56:34;6.70;;;2.33;;
53781;SDS011;39692;53.114;7.060;2023-03-31T03:59:00;8.68;;;2.60;;
53781;SDS011;39692;53.114;7.060;2023-03-31T04:01:26;8.38;;;2.83;;
53781;SDS011;39692;53.114;7.060;2023-03-31T04:03:52;9.60;;;2.70;;
53781;SDS011;39692;53.114;7.060;2023-03-31T04:06:18;7.15;;;2.60;;
53781;SDS011;39692;53.114;7.060;2023-03-31T04:08:44;8.10;;;2.63;;
53781;SDS011;39692;53.114;7.060;2023-03-31T04:11:15;8.75;;;2.90;;
53781;SDS011;39692;53.114;7.060;2023-03-31T04:13:41;8.52;;;2.60;;
53781;SDS011;39692;53.114;7.060;2023-03-31T04:16:07;8.70;;;2.08;;
53781;SDS011;39692;53.114;7.060;2023-03-31T04:18:34;7.68;;;2.30;;
53781;SDS011;39692;53.114;7.060;2023-03-31T04:21:01;10.02;;;2.83;;
53781;SDS011;39692;53.114;7.060;2023-03-31T04:23:31;6.53;;;2.17;;
53781;SDS011;39692;53.114;7.060;2023-03-31T04:25:57;8.82;;;2.50;;
53781;SDS011;39692;53.114;7.060;2023-03-31T04:28:24;6.88;;;2.28;;
53781;SDS011;39692;53.114;7.060;2023-03-31T04:30:53;8.18;;;2.78;;
53781;SDS011;39692;53.114;7.060;2023-03-31T04:33:22;6.30;;;2.30;;
53781;SDS011;39692;53.114;7.060;2023-03-31T04:35:49;9.90;;;2.20;;
53781;SDS011;39692;53.114;7.060;2023-03-31T04:38:17;5.75;;;2.72;;
53781;SDS011;39692;53.114;7.060;2023-03-31T04:40:46;5.88;;;3.13;;
53781;SDS011;39692;53.114;7.060;2023-03-31T04:43:13;7.18;;;3.38;;
53781;SDS011;39692;53.114;7.060;2023-03-31T04:45:39;7.88;;;2.88;;
53781;SDS011;39692;53.114;7.060;2023-03-31T04:48:06;8.63;;;2.60;;
53781;SDS011;39692;53.114;7.060;2023-03-31T04:50:32;6.25;;;2.08;;
53781;SDS011;39692;53.114;7.060;2023-03-31T04:52:58;7.00;;;2.28;;
53781;SDS011;39692;53.114;7.060;2023-03-31T04:55:24;6.82;;;3.15;;
53781;SDS011;39692;53.114;7.060;2023-03-31T04:57:51;5.43;;;2.47;;
53781;SDS011;39692;53.114;7.060;2023-03-31T05:00:17;5.43;;;2.15;;
53781;SDS011;39692;53.114;7.060;2023-03-31T05:02:43;6.38;;;2.83;;
53781;SDS011;39692;53.114;7.060;2023-03-31T05:05:09;9.00;;;2.72;;
53781;SDS011;39692;53.114;7.060;2023-03-31T05:07:36;7.28;;;2.45;;
53781;SDS011;39692;53.114;7.060;2023-03-31T05:10:02;6.05;;;2.63;;
53781;SDS011;39692;53.114;7.060;2023-03-31T05:12:29;5.50;;;2.65;;
53781;SDS011;39692;53.114;7.060;2023-03-31T05:14:58;5.03;;;2.38;;
53781;SDS011;39692;53.114;7.060;2023-03-31T05:17:24;6.50;;;2.42;;
53781;SDS011;39692;53.114;7.060;2023-03-31T05:19:50;5.30;;;2.20;;
53781;SDS011;39692;53.114;7.060;2023-03-31T05:22:17;7.95;;;2.58;;
53781;SDS011;39692;53.114;7.060;2023-03-31T05:24:45;6.20;;;2.83;;
53781;SDS011;39692;53.114;7.060;2023-03-31T05:27:11;3.33;;;1.90;;
53781;SDS011;39692;53.114;7.060;2023-03-31T05:29:37;5.10;;;1.98;;
53781;SDS011;39692;53.114;7.060;2023-03-31T05:32:03;7.57;;;2.67;;
53781;SDS011;39692;53.114;7.060;2023-03-31T05:34:29;5.28;;;2.85;;
53781;SDS011;39692;53.114;7.060;2023-03-31T05:36:55;7.78;;;2.03;;
53781;SDS011;39692;53.114;7.060;2023-03-31T05:39:22;4.70;;;2.15;;
53781;SDS011;39692;53.114;7.060;2023-03-31T05:41:48;6.95;;;2.45;;
53781;SDS011;39692;53.114;7.060;2023-03-31T05:44:14;5.38;;;2.40;;
53781;SDS011;39692;53.114;7.060;2023-03-31T05:46:41;5.90;;;1.98;;
53781;SDS011;39692;53.114;7.060;2023-03-31T05:49:07;9.75;;;2.45;;
53781;SDS011;39692;53.114;7.060;2023-03-31T05:51:35;7.32;;;2.45;;
53781;SDS011;39692;53.114;7.060;2023-03-31T05:54:01;5.88;;;1.90;;
53781;SDS011;39692;53.114;7.060;2023-03-31T05:56:27;6.72;;;2.53;;
53781;SDS011;39692;53.114;7.060;2023-03-31T05:58:53;10.88;;;3.35;;
53781;SDS011;39692;53.114;7.060;2023-03-31T06:01:19;4.18;;;2.08;;
53781;SDS011;39692;53.114;7.060;2023-03-31T06:03:47;8.45;;;3.20;;
53781;SDS011;39692;53.114;7.060;2023-03-31T06:06:13;7.70;;;2.72;;
53781;SDS011;39692;53.114;7.060;2023-03-31T06:08:43;10.75;;;3.30;;
53781;SDS011;39692;53.114;7.060;2023-03-31T06:11:10;6.53;;;2.20;;
53781;SDS011;39692;53.114;7.060;2023-03-31T06:13:37;7.97;;;3.20;;
53781;SDS011;39692;53.114;7.060;2023-03-31T06:16:04;7.85;;;3.30;;
53781;SDS011;39692;53.114;7.060;2023-03-31T06:18:31;7.18;;;2.90;;
53781;SDS011;39692;53.114;7.060;2023-03-31T06:20:57;6.93;;;3.05;;
53781;SDS011;39692;53.114;7.060;2023-03-31T06:23:23;7.55;;;3.22;;
53781;SDS011;39692;53.114;7.060;2023-03-31T06:25:50;9.55;;;2.78;;
53781;SDS011;39692;53.114;7.060;2023-03-31T06:28:16;9.57;;;2.85;;
53781;SDS011;39692;53.114;7.060;2023-03-31T06:30:43;6.60;;;2.80;;
53781;SDS011;39692;53.114;7.060;2023-03-31T06:33:09;8.02;;;3.22;;
53781;SDS011;39692;53.114;7.060;2023-03-31T06:35:39;6.70;;;2.92;;
53781;SDS011;39692;53.114;7.060;2023-03-31T06:38:05;6.00;;;3.35;;
53781;SDS011;39692;53.114;7.060;2023-03-31T06:40:32;5.57;;;3.35;;
53781;SDS011;39692;53.114;7.060;2023-03-31T06:42:58;5.53;;;2.75;;
53781;SDS011;39692;53.114;7.060;2023-03-31T06:45:24;9.80;;;3.25;;
53781;SDS011;39692;53.114;7.060;2023-03-31T06:47:50;6.50;;;2.78;;
53781;SDS011;39692;53.114;7.060;2023-03-31T06:50:16;5.28;;;2.88;;
53781;SDS011;39692;53.114;7.060;2023-03-31T06:52:43;6.40;;;2.58;;
53781;SDS011;39692;53.114;7.060;2023-03-31T06:55:09;5.22;;;3.10;;
53781;SDS011;39692;53.114;7.060;2023-03-31T06:57:37;8.32;;;3.22;;
53781;SDS011;39692;53.114;7.060;2023-03-31T07:00:03;8.32;;;3.00;;
53781;SDS011;39692;53.114;7.060;2023-03-31T07:02:29;4.85;;;2.38;;
53781;SDS011;39692;53.114;7.060;2023-03-31T07:04:55;6.25;;;2.90;;
53781;SDS011;39692;53.114;7.060;2023-03-31T07:07:21;7.07;;;3.22;;
53781;SDS011;39692;53.114;7.060;2023-03-31T07:09:48;6.05;;;3.35;;
53781;SDS011;39692;53.114;7.060;2023-03-31T07:12:14;5.70;;;2.50;;
53781;SDS011;39692;53.114;7.060;2023-03-31T07:14:40;5.18;;;2.72;;
53781;SDS011;39692;53.114;7.060;2023-03-31T07:17:06;6.60;;;2.55;;
53781;SDS011;39692;53.114;7.060;2023-03-31T07:19:32;7.82;;;3.17;;
53781;SDS011;39692;53.114;7.060;2023-03-31T07:22:02;7.32;;;2.65;;
53781;SDS011;39692;53.114;7.060;2023-03-31T07:24:28;6.35;;;2.80;;
53781;SDS011;39692;53.114;7.060;2023-03-31T07:26:55;6.30;;;3.63;;
53781;SDS011;39692;53.114;7.060;2023-03-31T07:29:21;9.13;;;3.10;;
53781;SDS011;39692;53.114;7.060;2023-03-31T07:31:47;6.45;;;3.08;;
53781;SDS011;39692;53.114;7.060;2023-03-31T07:34:13;4.55;;;2.63;;
53781;SDS011;39692;53.114;7.060;2023-03-31T07:36:39;8.02;;;3.25;;
53781;SDS011;39692;53.114;7.060;2023-03-31T07:39:05;8.43;;;3.53;;
53781;SDS011;39692;53.114;7.060;2023-03-31T07:41:31;6.13;;;3.22;;
53781;SDS011;39692;53.114;7.060;2023-03-31T07:43:57;7.47;;;3.03;;
53781;SDS011;39692;53.114;7.060;2023-03-31T07:46:24;7.88;;;3.72;;
53781;SDS011;39692;53.114;7.060;2023-03-31T07:48:51;9.10;;;3.10;;
53781;SDS011;39692;53.114;7.060;2023-03-31T07:51:19;6.88;;;3.13;;
53781;SDS011;39692;53.114;7.060;2023-03-31T07:53:46;4.95;;;2.42;;
53781;SDS011;39692;53.114;7.060;2023-03-31T07:56:13;8.23;;;3.28;;
53781;SDS011;39692;53.114;7.060;2023-03-31T07:58:41;7.45;;;2.95;;
53781;SDS011;39692;53.114;7.060;2023-03-31T08:01:07;5.05;;;2.47;;
53781;SDS011;39692;53.114;7.060;2023-03-31T08:03:33;6.32;;;2.85;;
53781;SDS011;39692;53.114;7.060;2023-03-31T08:05:59;9.43;;;3.50;;
53781;SDS011;39692;53.114;7.060;2023-03-31T08:08:25;6.88;;;2.53;;
53781;SDS011;39692;53.114;7.060;2023-03-31T08:10:51;6.90;;;2.78;;
53781;SDS011;39692;53.114;7.060;2023-03-31T08:13:18;6.50;;;2.85;;
53781;SDS011;39692;53.114;7.060;2023-03-31T08:15:44;6.25;;;2.85;;
53781;SDS011;39692;53.114;7.060;2023-03-31T08:18:10;5.80;;;2.78;;
53781;SDS011;39692;53.114;7.060;2023-03-31T08:20:36;4.43;;;2.53;;
53781;SDS011;39692;53.114;7.060;2023-03-31T08:23:03;5.63;;;3.10;;
53781;SDS011;39692;53.114;7.060;2023-03-31T08:25:33;8.18;;;3.08;;
53781;SDS011;39692;53.114;7.060;2023-03-31T08:27:59;7.68;;;3.47;;
53781;SDS011;39692;53.114;7.060;2023-03-31T08:30:25;8.45;;;3.25;;
53781;SDS011;39692;53.114;7.060;2023-03-31T08:32:51;8.75;;;3.28;;
53781;SDS011;39692;53.114;7.060;2023-03-31T08:35:17;10.10;;;3.70;;
53781;SDS011;39692;53.114;7.060;2023-03-31T08:37:43;6.45;;;3.92;;
53781;SDS011;39692;53.114;7.060;2023-03-31T08:40:13;8.50;;;4.13;;
53781;SDS011;39692;53.114;7.060;2023-03-31T08:42:45;5.40;;;3.35;;
53781;SDS011;39692;53.114;7.060;2023-03-31T08:45:31;8.23;;;4.38;;
53781;SDS011;39692;53.114;7.060;2023-03-31T08:48:09;11.80;;;4.38;;
53781;SDS011;39692;53.114;7.060;2023-03-31T08:50:42;9.65;;;4.72;;
53781;SDS011;39692;53.114;7.060;2023-03-31T08:53:21;7.18;;;4.53;;
53781;SDS011;39692;53.114;7.060;2023-03-31T08:55:50;8.45;;;5.35;;
53781;SDS011;39692;53.114;7.060;2023-03-31T08:58:21;10.48;;;5.13;;
53781;SDS011;39692;53.114;7.060;2023-03-31T09:01:13;10.05;;;4.65;;
53781;SDS011;39692;53.114;7.060;2023-03-31T09:03:42;11.73;;;5.63;;
53781;SDS011;39692;53.114;7.060;2023-03-31T09:06:21;8.52;;;4.97;;
53781;SDS011;39692;53.114;7.060;2023-03-31T09:08:48;11.95;;;5.85;;
53781;SDS011;39692;53.114;7.060;2023-03-31T09:16:41;8.68;;;4.65;;
53781;SDS011;39692;53.114;7.060;2023-03-31T09:19:10;9.55;;;4.13;;
53781;SDS011;39692;53.114;7.060;2023-03-31T09:21:48;12.55;;;4.80;;
53781;SDS011;39692;53.114;7.060;2023-03-31T09:24:20;12.27;;;5.45;;
53781;SDS011;39692;53.114;7.060;2023-03-31T09:29:25;7.80;;;4.38;;
53781;SDS011;39692;53.114;7.060;2023-03-31T09:31:53;7.43;;;4.13;;
53781;SDS011;39692;53.114;7.060;2023-03-31T09:34:26;11.07;;;4.13;;
53781;SDS011;39692;53.114;7.060;2023-03-31T09:36:53;8.00;;;4.15;;
53781;SDS011;39692;53.114;7.060;2023-03-31T09:39:19;8.43;;;4.38;;
53781;SDS011;39692;53.114;7.060;2023-03-31T09:41:45;8.18;;;4.60;;
53781;SDS011;39692;53.114;7.060;2023-03-31T09:44:20;7.47;;;4.53;;
53781;SDS011;39692;53.114;7.060;2023-03-31T09:46:47;6.88;;;4.13;;
53781;SDS011;39692;53.114;7.060;2023-03-31T09:49:14;11.00;;;4.47;;
53781;SDS011;39692;53.114;7.060;2023-03-31T09:51:43;9.13;;;4.63;;
53781;SDS011;39692;53.114;7.060;2023-03-31T09:56:56;6.47;;;3.75;;
53781;SDS011;39692;53.114;7.060;2023-03-31T09:59:23;12.77;;;4.45;;
53781;SDS011;39692;53.114;7.060;2023-03-31T10:01:56;6.60;;;3.55;;
53781;SDS011;39692;53.114;7.060;2023-03-31T10:04:24;8.38;;;3.60;;
53781;SDS011;39692;53.114;7.060;2023-03-31T10:06:50;7.68;;;4.65;;
53781;SDS011;39692;53.114;7.060;2023-03-31T10:09:18;5.72;;;3.03;;
53781;SDS011;39692;53.114;7.060;2023-03-31T10:11:56;3.72;;;2.20;;
53781;SDS011;39692;53.114;7.060;2023-03-31T10:14:23;5.05;;;2.63;;
53781;SDS011;39692;53.114;7.060;2023-03-31T10:16:55;7.35;;;3.58;;
53781;SDS011;39692;53.114;7.060;2023-03-31T10:19:28;4.57;;;2.40;;
53781;SDS011;39692;53.114;7.060;2023-03-31T10:22:00;6.35;;;2.30;;
53781;SDS011;39692;53.114;7.060;2023-03-31T10:24:35;5.72;;;1.98;;
53781;SDS011;39692;53.114;7.060;2023-03-31T10:27:01;5.45;;;1.85;;
53781;SDS011;39692;53.114;7.060;2023-03-31T10:29:30;3.55;;;1.42;;
53781;SDS011;39692;53.114;7.060;2023-03-31T10:32:30;3.83;;;1.40;;
53781;SDS011;39692;53.114;7.060;2023-03-31T10:34:49;4.38;;;1.63;;
53781;SDS011;39692;53.114;7.060;2023-03-31T10:37:16;2.47;;;1.25;;
53781;SDS011;39692;53.114;7.060;2023-03-31T10:39:43;6.45;;;2.00;;
53781;SDS011;39692;53.114;7.060;2023-03-31T10:42:17;3.60;;;1.48;;
53781;SDS011;39692;53.114;7.060;2023-03-31T10:44:44;4.85;;;1.23;;
53781;SDS011;39692;53.114;7.060;2023-03-31T10:47:16;2.72;;;1.20;;
53781;SDS011;39692;53.114;7.060;2023-03-31T10:49:43;1.63;;;0.80;;
53781;SDS011;39692;53.114;7.060;2023-03-31T10:52:23;2.92;;;1.10;;
53781;SDS011;39692;53.114;7.060;2023-03-31T10:54:54;2.13;;;1.08;;
53781;SDS011;39692;53.114;7.060;2023-03-31T10:57:23;1.98;;;1.00;;
53781;SDS011;39692;53.114;7.060;2023-03-31T11:08:03;4.38;;;1.35;;
53781;SDS011;39692;53.114;7.060;2023-03-31T11:13:12;2.50;;;1.25;;
53781;SDS011;39692;53.114;7.060;2023-03-31T11:31:27;2.40;;;1.50;;
53781;SDS011;39692;53.114;7.060;2023-03-31T11:39:49;5.05;;;1.63;;
53781;SDS011;39692;53.114;7.060;2023-03-31T11:42:14;4.38;;;1.38;;
53781;SDS011;39692;53.114;7.060;2023-03-31T11:44:45;5.47;;;1.58;;
53781;SDS011;39692;53.114;7.060;2023-03-31T11:47:27;5.18;;;1.55;;
53781;SDS011;39692;53.114;7.060;2023-03-31T11:49:56;3.90;;;1.48;;
53781;SDS011;39692;53.114;7.060;2023-03-31T11:52:31;4.22;;;1.33;;
53781;SDS011;39692;53.114;7.060;2023-03-31T11:57:26;5.85;;;1.23;;
53781;SDS011;39692;53.114;7.060;2023-03-31T11:59:59;3.30;;;1.00;;
53781;SDS011;39692;53.114;7.060;2023-03-31T12:02:33;2.33;;;1.23;;
53781;SDS011;39692;53.114;7.060;2023-03-31T12:05:04;3.33;;;1.33;;
53781;SDS011;39692;53.114;7.060;2023-03-31T12:12:33;1.85;;;0.98;;
53781;SDS011;39692;53.114;7.060;2023-03-31T12:17:32;3.40;;;1.40;;
53781;SDS011;39692;53.114;7.060;2023-03-31T12:20:01;6.15;;;1.65;;
53781;SDS011;39692;53.114;7.060;2023-03-31T12:25:03;6.03;;;2.33;;
53781;SDS011;39692;53.114;7.060;2023-03-31T12:27:42;5.45;;;1.25;;
53781;SDS011;39692;53.114;7.060;2023-03-31T12:32:46;3.50;;;1.70;;
53781;SDS011;39692;53.114;7.060;2023-03-31T12:35:21;9.50;;;2.00;;
53781;SDS011;39692;53.114;7.060;2023-03-31T12:42:49;3.95;;;1.42;;
53781;SDS011;39692;53.114;7.060;2023-03-31T12:55:46;4.68;;;1.67;;
53781;SDS011;39692;53.114;7.060;2023-03-31T13:08:52;6.57;;;2.28;;
53781;SDS011;39692;53.114;7.060;2023-03-31T13:11:33;7.28;;;2.45;;
53781;SDS011;39692;53.114;7.060;2023-03-31T13:16:41;4.68;;;2.10;;
53781;SDS011;39692;53.114;7.060;2023-03-31T13:19:11;6.95;;;2.13;;
53781;SDS011;39692;53.114;7.060;2023-03-31T13:21:54;6.63;;;2.13;;
53781;SDS011;39692;53.114;7.060;2023-03-31T13:24:21;5.80;;;2.30;;
53781;SDS011;39692;53.114;7.060;2023-03-31T13:26:47;7.65;;;2.78;;
53781;SDS011;39692;53.114;7.060;2023-03-31T13:42:51;6.43;;;3.22;;
53781;SDS011;39692;53.114;7.060;2023-03-31T13:53:35;7.38;;;2.70;;
53781;SDS011;39692;53.114;7.060;2023-03-31T14:06:40;7.05;;;2.00;;
53781;SDS011;39692;53.114;7.060;2023-03-31T14:09:10;6.32;;;2.53;;
53781;SDS011;39692;53.114;7.060;2023-03-31T14:11:37;6.43;;;2.25;;
53781;SDS011;39692;53.114;7.060;2023-03-31T14:16:31;12.30;;;3.72;;
53781;SDS011;39692;53.114;7.060;2023-03-31T14:21:50;6.68;;;2.65;;
53781;SDS011;39692;53.114;7.060;2023-03-31T14:27:05;9.07;;;3.17;;
53781;SDS011;39692;53.114;7.060;2023-03-31T14:35:41;10.13;;;2.60;;
53781;SDS011;39692;53.114;7.060;2023-03-31T14:37:37;6.18;;;2.50;;
53781;SDS011;39692;53.114;7.060;2023-03-31T14:40:04;6.22;;;2.55;;
53781;SDS011;39692;53.114;7.060;2023-03-31T14:42:39;6.40;;;2.30;;
53781;SDS011;39692;53.114;7.060;2023-03-31T14:45:14;7.15;;;3.00;;
53781;SDS011;39692;53.114;7.060;2023-03-31T14:47:41;8.55;;;3.05;;
53781;SDS011;39692;53.114;7.060;2023-03-31T14:50:14;7.30;;;2.20;;
53781;SDS011;39692;53.114;7.060;2023-03-31T14:52:45;2.83;;;1.25;;
53781;SDS011;39692;53.114;7.060;2023-03-31T14:55:15;4.82;;;1.35;;
53781;SDS011;39692;53.114;7.060;2023-03-31T14:57:41;3.72;;;1.05;;
53781;SDS011;39692;53.114;7.060;2023-03-31T15:00:13;4.70;;;1.08;;
53781;SDS011;39692;53.114;7.060;2023-03-31T15:02:41;6.80;;;0.98;;
53781;SDS011;39692;53.114;7.060;2023-03-31T15:05:08;3.60;;;0.75;;
53781;SDS011;39692;53.114;7.060;2023-03-31T15:07:35;5.80;;;1.35;;
53781;SDS011;39692;53.114;7.060;2023-03-31T15:10:02;4.78;;;1.30;;
53781;SDS011;39692;53.114;7.060;2023-03-31T15:12:28;3.58;;;1.15;;
53781;SDS011;39692;53.114;7.060;2023-03-31T15:14:56;2.92;;;0.98;;
53781;SDS011;39692;53.114;7.060;2023-03-31T15:17:44;4.38;;;1.10;;
53781;SDS011;39692;53.114;7.060;2023-03-31T15:22:55;3.13;;;1.13;;
53781;SDS011;39692;53.114;7.060;2023-03-31T15:25:23;2.95;;;0.60;;
53781;SDS011;39692;53.114;7.060;2023-03-31T15:27:52;3.35;;;0.90;;
53781;SDS011;39692;53.114;7.060;2023-03-31T15:30:20;1.17;;;0.63;;
53781;SDS011;39692;53.114;7.060;2023-03-31T15:32:47;3.78;;;0.63;;
53781;SDS011;39692;53.114;7.060;2023-03-31T15:35:20;2.75;;;0.82;;
53781;SDS011;39692;53.114;7.060;2023-03-31T15:37:48;4.30;;;1.13;;
53781;SDS011;39692;53.114;7.060;2023-03-31T15:40:23;3.42;;;0.85;;
53781;SDS011;39692;53.114;7.060;2023-03-31T15:42:56;3.03;;;0.65;;
53781;SDS011;39692;53.114;7.060;2023-03-31T15:45:34;4.10;;;0.80;;
53781;SDS011;39692;53.114;7.060;2023-03-31T15:48:02;1.45;;;0.40;;
53781;SDS011;39692;53.114;7.060;2023-03-31T15:50:28;4.38;;;0.70;;
53781;SDS011;39692;53.114;7.060;2023-03-31T15:52:55;1.75;;;0.57;;
53781;SDS011;39692;53.114;7.060;2023-03-31T15:57:48;3.22;;;0.70;;
53781;SDS011;39692;53.114;7.060;2023-03-31T16:03:00;2.38;;;0.75;;
53781;SDS011;39692;53.114;7.060;2023-03-31T16:08:03;3.92;;;0.90;;
53781;SDS011;39692;53.114;7.060;2023-03-31T16:10:30;2.65;;;0.70;;
53781;SDS011;39692;53.114;7.060;2023-03-31T16:15:30;2.80;;;0.90;;
53781;SDS011;39692;53.114;7.060;2023-03-31T16:18:02;2.58;;;0.85;;
53781;SDS011;39692;53.114;7.060;2023-03-31T16:20:40;3.95;;;1.00;;
53781;SDS011;39692;53.114;7.060;2023-03-31T16:23:13;3.78;;;1.33;;
53781;SDS011;39692;53.114;7.060;2023-03-31T16:25:40;3.33;;;0.90;;
53781;SDS011;39692;53.114;7.060;2023-03-31T16:28:07;2.80;;;0.98;;
53781;SDS011;39692;53.114;7.060;2023-03-31T16:30:39;4.07;;;1.20;;
53781;SDS011;39692;53.114;7.060;2023-03-31T16:35:32;3.42;;;1.23;;
53781;SDS011;39692;53.114;7.060;2023-03-31T16:37:58;4.22;;;1.40;;
53781;SDS011;39692;53.114;7.060;2023-03-31T16:40:28;8.98;;;1.77;;
53781;SDS011;39692;53.114;7.060;2023-03-31T16:45:48;5.07;;;1.75;;
53781;SDS011;39692;53.114;7.060;2023-03-31T16:48:14;4.00;;;1.15;;
53781;SDS011;39692;53.114;7.060;2023-03-31T16:50:41;5.15;;;1.17;;
53781;SDS011;39692;53.114;7.060;2023-03-31T16:53:07;6.57;;;1.42;;
53781;SDS011;39692;53.114;7.060;2023-03-31T16:55:34;5.18;;;1.20;;
53781;SDS011;39692;53.114;7.060;2023-03-31T16:58:00;4.88;;;1.55;;
53781;SDS011;39692;53.114;7.060;2023-03-31T17:00:28;7.05;;;1.50;;
53781;SDS011;39692;53.114;7.060;2023-03-31T17:02:55;5.13;;;1.23;;
53781;SDS011;39692;53.114;7.060;2023-03-31T17:05:22;4.43;;;1.27;;
53781;SDS011;39692;53.114;7.060;2023-03-31T17:07:49;4.95;;;2.22;;
53781;SDS011;39692;53.114;7.060;2023-03-31T17:10:15;5.68;;;1.75;;
53781;SDS011;39692;53.114;7.060;2023-03-31T17:12:41;5.90;;;1.15;;
53781;SDS011;39692;53.114;7.060;2023-03-31T17:15:08;5.60;;;1.60;;
53781;SDS011;39692;53.114;7.060;2023-03-31T17:17:34;5.72;;;1.67;;
53781;SDS011;39692;53.114;7.060;2023-03-31T17:20:01;6.72;;;1.70;;
53781;SDS011;39692;53.114;7.060;2023-03-31T17:22:27;6.13;;;1.70;;
53781;SDS011;39692;53.114;7.060;2023-03-31T17:24:53;3.83;;;1.42;;
53781;SDS011;39692;53.114;7.060;2023-03-31T17:27:23;4.03;;;1.27;;
53781;SDS011;39692;53.114;7.060;2023-03-31T17:29:49;6.63;;;1.33;;
53781;SDS011;39692;53.114;7.060;2023-03-31T17:32:15;5.00;;;1.00;;
53781;SDS011;39692;53.114;7.060;2023-03-31T17:34:43;3.47;;;1.05;;
53781;SDS011;39692;53.114;7.060;2023-03-31T17:37:09;4.10;;;0.98;;
53781;SDS011;39692;53.114;7.060;2023-03-31T17:39:36;2.15;;;0.65;;
53781;SDS011;39692;53.114;7.060;2023-03-31T17:42:02;3.40;;;0.85;;
53781;SDS011;39692;53.114;7.060;2023-03-31T17:44:28;1.75;;;0.50;;
53781;SDS011;39692;53.114;7.060;2023-03-31T17:46:55;2.80;;;0.73;;
53781;SDS011;39692;53.114;7.060;2023-03-31T17:49:21;6.28;;;1.85;;
53781;SDS011;39692;53.114;7.060;2023-03-31T17:51:48;4.18;;;0.90;;
53781;SDS011;39692;53.114;7.060;2023-03-31T17:54:14;3.72;;;1.08;;
53781;SDS011;39692;53.114;7.060;2023-03-31T17:56:40;4.22;;;0.90;;
53781;SDS011;39692;53.114;7.060;2023-03-31T17:59:07;2.58;;;0.75;;
53781;SDS011;39692;53.114;7.060;2023-03-31T18:01:34;3.72;;;0.80;;
53781;SDS011;39692;53.114;7.060;2023-03-31T18:04:01;2.45;;;0.60;;
53781;SDS011;39692;53.114;7.060;2023-03-31T18:06:27;4.57;;;0.85;;
53781;SDS011;39692;53.114;7.060;2023-03-31T18:08:54;3.20;;;1.83;;